Time;durP1;ratioP1;P1;durP2;ratioP2;P2;SDS_P1;SDS_P2;PMS_P1;PMS_P2;Temp;Humidity;BMP_temperature;BMP_pressure;BME280_temperature;BME280_humidity;BME280_pressure;Samples;Min_cycle;Max_cycle;Signal;HPM_P1;HPM_P2
2023/12/15 00:02:28;;;;;;;20.58;11.27;;;;;;;5.35;100.00;101579.97;5024655;28;20052;-73
2023/12/15 00:04:57;;;;;;;21.50;11.85;;;;;;;5.31;100.00;101585.25;5031913;28;20057;-74
2023/12/15 00:07:28;;;;;;;21.88;11.60;;;;;;;5.26;100.00;101588.75;5021225;28;20057;-71
2023/12/15 00:09:59;;;;;;;20.00;10.88;;;;;;;5.25;100.00;101589.63;5033985;28;20041;-74
2023/12/15 00:12:28;;;;;;;19.58;11.18;;;;;;;5.25;100.00;101591.41;5009329;28;20052;-72
2023/12/15 00:14:58;;;;;;;18.98;10.75;;;;;;;5.31;100.00;101595.75;5034858;28;20037;-72
2023/12/15 00:17:29;;;;;;;20.38;11.00;;;;;;;5.25;100.00;101586.13;5031366;28;20414;-72
2023/12/15 00:19:59;;;;;;;18.02;10.88;;;;;;;5.31;100.00;101596.63;5032755;28;20038;-71
2023/12/15 00:22:30;;;;;;;20.17;11.15;;;;;;;5.41;100.00;101602.66;5024601;28;20430;-73
2023/12/15 00:25:04;;;;;;;19.83;11.68;;;;;;;5.40;100.00;101612.31;5034197;28;20080;-72
2023/12/15 00:27:32;;;;;;;24.95;13.05;;;;;;;5.37;100.00;101614.06;5017041;28;20605;-71
2023/12/15 00:30:03;;;;;;;22.73;12.65;;;;;;;5.31;100.00;101612.38;5014739;28;20763;-73
2023/12/15 00:32:32;;;;;;;23.95;13.07;;;;;;;5.29;100.00;101628.16;5022227;28;20045;-72
2023/12/15 00:35:00;;;;;;;24.77;13.88;;;;;;;5.21;100.00;101627.28;5017833;28;20058;-71
2023/12/15 00:37:29;;;;;;;27.65;13.80;;;;;;;5.21;100.00;101634.31;5031567;28;20086;-72
2023/12/15 00:39:59;;;;;;;24.15;13.82;;;;;;;5.08;100.00;101619.50;5028725;28;20041;-72
2023/12/15 00:42:27;;;;;;;25.37;14.07;;;;;;;5.14;100.00;101637.84;5025115;28;20532;-71
2023/12/15 00:44:56;;;;;;;25.75;13.45;;;;;;;5.15;100.00;101640.47;5030682;28;20064;-70
2023/12/15 00:47:26;;;;;;;25.70;14.00;;;;;;;5.13;100.00;101636.97;5037096;28;20506;-72
2023/12/15 00:49:54;;;;;;;24.55;13.30;;;;;;;5.11;100.00;101641.38;5029316;28;21590;-71
2023/12/15 00:52:23;;;;;;;20.83;11.80;;;;;;;5.10;100.00;101647.50;5002313;28;20186;-72
2023/12/15 00:54:53;;;;;;;20.05;11.32;;;;;;;5.02;100.00;101646.66;5031535;28;20041;-72
2023/12/15 00:57:23;;;;;;;;;;;;;;;5.06;100.00;101653.63;5034399;28;20050;-73
2023/12/15 00:59:51;;;;;;;20.35;11.35;;;;;;;5.00;100.00;101655.44;5028196;28;19924;-74
2023/12/15 01:02:19;;;;;;;20.90;11.85;;;;;;;4.96;100.00;101662.44;5027450;28;20041;-71
2023/12/15 01:04:48;;;;;;;20.55;12.10;;;;;;;4.92;100.00;101664.19;5033712;28;20058;-72
2023/12/15 01:07:20;;;;;;;19.48;11.52;;;;;;;4.89;100.00;101673.81;5032784;28;20510;-72
2023/12/15 01:09:48;;;;;;;21.45;12.05;;;;;;;4.78;100.00;101652.00;5032885;28;20042;-73
2023/12/15 01:12:16;;;;;;;20.85;11.68;;;;;;;4.78;100.00;101663.38;5028151;28;20533;-72
2023/12/15 01:14:45;;;;;;;22.67;12.40;;;;;;;4.88;100.00;101680.81;5029575;28;20101;-72
2023/12/15 01:17:15;;;;;;;20.20;11.90;;;;;;;4.81;100.00;101675.59;5034695;28;20447;-72
2023/12/15 01:19:44;;;;;;;20.92;12.48;;;;;;;4.80;100.00;101674.72;5038849;28;20079;-73
2023/12/15 01:22:15;;;;;;;24.45;13.15;;;;;;;4.74;100.00;101676.50;5031504;28;20045;-70
2023/12/15 01:24:43;;;;;;;24.15;13.15;;;;;;;4.72;100.00;101686.97;5032727;28;20041;-71
2023/12/15 01:27:11;;;;;;;23.80;12.95;;;;;;;4.72;100.00;101686.16;5028888;28;20056;-72
2023/12/15 01:29:39;;;;;;;21.95;12.68;;;;;;;4.70;100.00;101677.41;5028471;28;20052;-71
2023/12/15 01:32:10;;;;;;;;;;;;;;;4.76;100.00;101683.47;5026591;28;20050;-73
2023/12/15 01:34:38;;;;;;;25.92;13.30;;;;;;;4.78;100.00;101683.47;5033101;28;19952;-71
2023/12/15 01:37:08;;;;;;;22.92;12.77;;;;;;;4.80;100.00;101694.84;5035200;28;20042;-70
2023/12/15 01:39:37;;;;;;;24.00;13.55;;;;;;;4.79;100.00;101686.09;5032975;28;20251;-72
2023/12/15 01:42:08;;;;;;;24.40;12.80;;;;;;;4.81;100.00;101700.09;5027129;28;20052;-72
2023/12/15 01:44:36;;;;;;;26.20;14.55;;;;;;;4.81;100.00;101707.97;5027948;28;20759;-73
2023/12/15 01:47:05;;;;;;;25.90;14.65;;;;;;;4.77;100.00;101711.47;5039237;28;20053;-71
2023/12/15 01:49:33;;;;;;;25.73;14.70;;;;;;;4.74;100.00;101710.59;5032470;28;20060;-72
2023/12/15 01:52:01;;;;;;;27.65;14.50;;;;;;;4.77;100.00;101721.97;5029335;28;20053;-71
2023/12/15 01:54:29;;;;;;;29.58;14.45;;;;;;;4.80;100.00;101728.97;5011203;28;20053;-76
2023/12/15 01:56:59;;;;;;;26.50;14.60;;;;;;;4.71;100.00;101710.63;5034776;28;20060;-71
2023/12/15 01:59:27;;;;;;;27.70;15.05;;;;;;;4.81;100.00;101730.72;5030554;28;20080;-71
2023/12/15 02:01:55;;;;;;;28.48;15.48;;;;;;;4.86;100.00;101728.97;5028605;28;20053;-72
2023/12/15 02:04:25;;;;;;;29.05;15.80;;;;;;;4.77;100.00;101706.22;5031745;28;20103;-72
2023/12/15 02:06:54;;;;;;;31.23;16.47;;;;;;;4.87;100.00;101733.34;5034643;28;20041;-72
2023/12/15 02:09:23;;;;;;;29.80;16.00;;;;;;;4.88;100.00;101735.94;5030044;28;20053;-71
2023/12/15 02:11:51;;;;;;;30.65;16.30;;;;;;;4.89;100.00;101735.06;5012226;28;20243;-71
2023/12/15 02:14:20;;;;;;;29.98;16.77;;;;;;;4.90;100.00;101743.81;5010686;28;20484;-72
2023/12/15 02:16:48;;;;;;;31.65;16.63;;;;;;;4.82;100.00;101721.97;5033488;28;20038;-73
2023/12/15 02:19:17;;;;;;;30.63;17.00;;;;;;;4.90;100.00;101733.31;5045717;28;20522;-71
2023/12/15 02:21:45;;;;;;;30.38;16.92;;;;;;;4.92;100.00;101748.19;5034820;28;20095;-71
2023/12/15 02:24:15;;;;;;;33.40;17.92;;;;;;;4.89;100.00;101744.69;5031715;28;20536;-72
2023/12/15 02:26:46;;;;;;;31.77;16.63;;;;;;;4.84;100.00;101742.09;5047638;28;20072;-74
2023/12/15 02:29:15;;;;;;;32.70;16.52;;;;;;;4.80;100.00;101745.59;5036520;28;20564;-73
2023/12/15 02:31:46;;;;;;;30.38;16.52;;;;;;;4.80;100.00;101745.59;5048517;28;20144;-71
2023/12/15 02:34:14;;;;;;;30.40;16.20;;;;;;;4.77;100.00;101753.47;5026703;28;20049;-71
2023/12/15 02:36:45;;;;;;;31.20;16.80;;;;;;;4.74;100.00;101737.72;5016147;28;20044;-73
2023/12/15 02:39:15;;;;;;;30.50;15.82;;;;;;;4.78;100.00;101744.72;5035263;28;20418;-73
2023/12/15 02:41:45;;;;;;;27.23;15.13;;;;;;;4.78;100.00;101751.72;5017430;28;20049;-72
2023/12/15 02:44:14;;;;;;;28.58;15.32;;;;;;;4.80;100.00;101748.22;5022829;28;20518;-72
2023/12/15 02:46:42;;;;;;;26.27;14.02;;;;;;;4.79;100.00;101751.72;5033997;28;20049;-72
2023/12/15 02:49:10;;;;;;;24.20;13.40;;;;;;;4.83;100.00;101763.97;5028501;28;20045;-72
2023/12/15 02:51:39;;;;;;;29.40;15.15;;;;;;;4.82;100.00;101756.97;5045150;28;20045;-74
2023/12/15 02:54:08;;;;;;;26.60;14.13;;;;;;;4.82;100.00;101762.22;5022323;28;21287;-72
2023/12/15 02:56:37;;;;;;;24.90;13.73;;;;;;;4.76;100.00;101758.72;5031377;28;20045;-71
2023/12/15 02:59:06;;;;;;;23.98;13.68;;;;;;;4.74;100.00;101763.09;5030445;28;20095;-73
2023/12/15 03:01:35;;;;;;;28.23;14.93;;;;;;;4.80;100.00;101784.09;5026889;28;20100;-74
2023/12/15 03:04:05;;;;;;;27.92;14.05;;;;;;;4.79;100.00;101783.22;5028805;28;20049;-72
2023/12/15 03:06:34;;;;;;;23.70;13.32;;;;;;;4.78;100.00;101778.81;5013303;28;20046;-72
2023/12/15 03:09:03;;;;;;;27.25;14.23;;;;;;;4.80;100.00;101786.72;5038873;28;20049;-71
2023/12/15 03:11:32;;;;;;;26.40;14.73;;;;;;;4.81;100.00;101780.59;5032923;28;20052;-71
2023/12/15 03:14:02;;;;;;;27.77;14.73;;;;;;;4.81;100.00;101786.72;4990994;28;20058;-73
2023/12/15 03:16:30;;;;;;;25.95;14.45;;;;;;;4.80;100.00;101784.97;5032933;28;20061;-73
2023/12/15 03:19:00;;;;;;;28.45;14.45;;;;;;;4.86;100.00;101790.22;5021528;28;20509;-72
2023/12/15 03:21:28;;;;;;;29.45;15.13;;;;;;;4.94;100.00;101787.56;5041051;28;20041;-72
2023/12/15 03:23:55;;;;;;;28.10;14.95;;;;;;;5.01;100.00;101784.06;5035327;28;20052;-71
2023/12/15 03:26:26;;;;;;;29.23;14.85;;;;;;;5.04;100.00;101789.28;5046578;28;20596;-72
2023/12/15 03:28:55;;;;;;;29.00;15.52;;;;;;;5.09;100.00;101791.91;5037183;28;20042;-72
2023/12/15 03:31:25;;;;;;;31.60;15.52;;;;;;;5.13;100.00;101785.78;5036718;28;20528;-72
2023/12/15 03:33:54;;;;;;;29.38;15.90;;;;;;;5.07;100.00;101786.66;5023202;28;20049;-71
2023/12/15 03:36:22;;;;;;;29.40;15.90;;;;;;;5.10;100.00;101789.28;5018228;28;20089;-72
2023/12/15 03:38:50;;;;;;;26.90;14.85;;;;;;;4.97;100.00;101781.44;5028873;28;20383;-73
2023/12/15 03:41:21;;;;;;;27.55;14.80;;;;;;;5.07;100.00;101805.03;5027898;28;20038;-73
2023/12/15 03:43:51;;;;;;;27.27;14.43;;;;;;;4.96;100.00;101792.81;5024093;28;20044;-73
2023/12/15 03:46:20;;;;;;;29.13;15.18;;;;;;;5.09;100.00;101808.53;5031768;28;20103;-73
2023/12/15 03:48:51;;;;;;;31.92;15.70;;;;;;;5.18;100.00;101807.66;5033639;28;20053;-73
2023/12/15 03:51:20;;;;;;;28.15;14.35;;;;;;;5.16;100.00;101791.91;5010051;28;20073;-71
2023/12/15 03:53:48;;;;;;;24.60;14.15;;;;;;;5.16;100.00;101805.03;5023394;28;20056;-73
2023/12/15 03:56:24;;;;;;;27.38;14.55;;;;;;;5.08;100.00;101809.41;5029879;28;20514;-72
2023/12/15 03:58:54;;;;;;;26.85;14.77;;;;;;;5.07;100.00;101807.66;5029688;28;20077;-73
2023/12/15 04:01:22;;;;;;;26.23;13.88;;;;;;;5.10;100.00;101812.03;5030652;28;20103;-72
2023/12/15 04:03:53;;;;;;;24.55;14.05;;;;;;;5.16;100.00;101810.28;5021390;28;20040;-74
2023/12/15 04:06:21;;;;;;;;;;;;;;;5.19;100.00;101815.53;5030412;28;20480;-71
2023/12/15 04:08:49;;;;;;;26.27;14.35;;;;;;;5.23;100.00;101822.50;5028838;28;20274;-72
2023/12/15 04:11:19;;;;;;;24.52;14.20;;;;;;;5.32;100.00;101820.75;5032140;28;20045;-73
2023/12/15 04:13:50;;;;;;;25.98;13.48;;;;;;;5.34;100.00;101821.63;5024259;28;20057;-70
2023/12/15 04:16:19;;;;;;;26.48;13.63;;;;;;;5.38;100.00;101825.97;5029174;28;20411;-71
2023/12/15 04:18:48;;;;;;;27.50;13.85;;;;;;;5.38;100.00;101820.72;5032420;28;20041;-71
2023/12/15 04:21:20;;;;;;;24.08;13.77;;;;;;;5.36;100.00;101838.22;5028945;28;20041;-71
2023/12/15 04:23:50;;;;;;;27.73;14.50;;;;;;;5.17;100.00;101821.66;5021387;28;20552;-71
2023/12/15 04:26:18;;;;;;;28.08;13.90;;;;;;;5.13;100.00;101843.53;5015350;28;20418;-72
2023/12/15 04:28:47;;;;;;;28.75;14.88;;;;;;;5.05;100.00;101847.91;5032204;28;20091;-72
2023/12/15 04:31:15;;;;;;;26.17;14.90;;;;;;;4.92;100.00;101832.19;5029288;28;20048;-71
2023/12/15 04:33:43;;;;;;;28.70;14.68;;;;;;;5.01;100.00;101847.06;5002337;28;20050;-71
2023/12/15 04:36:12;;;;;;;29.35;14.93;;;;;;;5.12;100.00;101853.16;5029080;28;20583;-71
2023/12/15 04:38:41;;;;;;;29.63;14.70;;;;;;;5.18;100.00;101854.91;5030107;28;20045;-71
2023/12/15 04:41:17;;;;;;;29.92;14.80;;;;;;;5.19;100.00;101849.66;5031017;28;20049;-72
2023/12/15 04:43:46;;;;;;;28.70;14.88;;;;;;;5.28;100.00;101852.25;5023605;28;20046;-71
2023/12/15 04:46:22;;;;;;;26.67;14.02;;;;;;;5.35;100.00;101862.78;5029343;28;20556;-71
2023/12/15 04:48:50;;;;;;;30.33;15.98;;;;;;;5.39;100.00;101861.88;5028550;28;20065;-73
2023/12/15 04:51:21;;;;;;;26.60;14.02;;;;;;;5.40;100.00;101871.50;4997701;28;20072;-72
2023/12/15 04:53:51;;;;;;;28.60;14.45;;;;;;;5.36;100.00;101860.09;5019146;28;20033;-72
2023/12/15 04:56:19;;;;;;;26.30;14.57;;;;;;;5.42;100.00;101867.13;5029156;28;20036;-72
2023/12/15 04:58:48;;;;;;;28.55;15.05;;;;;;;5.42;100.00;101877.63;5030891;28;20060;-72
2023/12/15 05:01:18;;;;;;;;;;;;;;;5.44;100.00;101879.38;5027624;28;20041;-71
2023/12/15 05:03:48;;;;;;;26.60;14.45;;;;;;;5.43;100.00;101887.25;5022184;28;20031;-72
2023/12/15 05:06:18;;;;;;;29.67;15.30;;;;;;;5.41;100.00;101887.25;5002018;28;20131;-71
2023/12/15 05:08:47;;;;;;;30.50;14.80;;;;;;;5.39;100.00;101896.00;5032399;28;20185;-70
2023/12/15 05:11:18;;;;;;;29.30;15.13;;;;;;;5.41;100.00;101896.88;5030249;28;20480;-72
2023/12/15 05:13:47;;;;;;;30.77;15.80;;;;;;;5.38;100.00;101904.75;5008844;28;20140;-72
2023/12/15 05:16:15;;;;;;;29.20;15.80;;;;;;;5.35;100.00;101900.41;5032424;28;20041;-72
2023/12/15 05:18:44;;;;;;;29.75;15.40;;;;;;;5.38;100.00;101904.75;5035679;28;20037;-72
2023/12/15 05:21:16;;;;;;;31.30;16.25;;;;;;;5.32;100.00;101910.94;5038289;28;20049;-71
2023/12/15 05:23:44;;;;;;;29.42;15.25;;;;;;;5.18;100.00;101900.44;5029289;28;20092;-73
2023/12/15 05:26:16;;;;;;;33.80;15.85;;;;;;;5.23;100.00;101911.78;5035665;28;20049;-73
2023/12/15 05:28:47;;;;;;;30.00;16.30;;;;;;;5.28;100.00;101912.69;5043147;28;20113;-71
2023/12/15 05:31:16;;;;;;;30.90;15.95;;;;;;;5.34;100.00;101914.44;5043833;28;20068;-72
2023/12/15 05:33:44;;;;;;;30.25;16.40;;;;;;;5.41;100.00;101921.41;5032188;28;20052;-73
2023/12/15 05:36:18;;;;;;;28.98;15.98;;;;;;;5.43;100.00;101926.66;5037480;28;20064;-71
2023/12/15 05:38:46;;;;;;;32.53;16.02;;;;;;;5.40;100.00;101926.66;5044477;28;20049;-71
2023/12/15 05:41:19;;;;;;;31.35;15.98;;;;;;;5.31;100.00;101908.28;5026410;28;20079;-72
2023/12/15 05:43:48;;;;;;;33.40;16.55;;;;;;;5.39;100.00;101924.91;5024429;28;20049;-73
2023/12/15 05:46:19;;;;;;;30.70;15.65;;;;;;;5.46;100.00;101939.78;5034099;28;20054;-72
2023/12/15 05:48:56;;;;;;;32.95;16.25;;;;;;;5.45;100.00;101938.03;5037213;28;20141;-71
2023/12/15 05:51:27;;;;;;;32.83;15.73;;;;;;;5.55;100.00;101940.66;5035116;28;20041;-72
2023/12/15 05:53:56;;;;;;;32.30;16.63;;;;;;;5.53;100.00;101944.16;5030077;28;20407;-71
2023/12/15 05:56:27;;;;;;;29.50;15.85;;;;;;;5.45;100.00;101938.03;5036637;28;20113;-73
2023/12/15 05:58:56;;;;;;;32.63;16.45;;;;;;;5.49;100.00;101952.94;5035530;28;20042;-72
2023/12/15 06:01:25;;;;;;;29.45;15.38;;;;;;;5.47;100.00;101954.69;5013822;28;20053;-72
2023/12/15 06:03:55;;;;;;;;;;;;;;;5.51;100.00;101964.31;5014762;28;20127;-70
2023/12/15 06:06:23;;;;;;;29.77;15.27;;;;;;;5.50;100.00;101963.44;5031647;28;19924;-70
2023/12/15 06:08:53;;;;;;;33.28;16.73;;;;;;;5.39;100.00;101952.06;5036474;28;20072;-72
2023/12/15 06:11:20;;;;;;;29.15;14.77;;;;;;;5.46;100.00;101964.31;5031349;28;20057;-72
2023/12/15 06:13:50;;;;;;;31.13;15.98;;;;;;;5.47;100.00;101971.31;5031051;28;20107;-72
2023/12/15 06:16:19;;;;;;;30.23;15.38;;;;;;;5.47;100.00;101973.06;5031527;28;20465;-73
2023/12/15 06:18:47;;;;;;;28.42;15.20;;;;;;;5.40;100.00;101952.94;5023744;28;20506;-72
2023/12/15 06:21:22;;;;;;;28.42;14.93;;;;;;;5.47;100.00;101975.72;5032345;28;20410;-72
2023/12/15 06:23:54;;;;;;;31.02;15.27;;;;;;;5.42;100.00;101964.31;5012248;28;20049;-72
2023/12/15 06:26:26;;;;;;;28.13;15.15;;;;;;;5.46;100.00;101966.06;5048914;28;20077;-72
2023/12/15 06:28:56;;;;;;;29.35;15.30;;;;;;;5.49;100.00;101966.06;5038626;28;20457;-72
2023/12/15 06:31:25;;;;;;;27.65;14.55;;;;;;;5.51;100.00;101961.69;5038478;28;20045;-72
2023/12/15 06:33:54;;;;;;;28.83;14.83;;;;;;;5.54;100.00;101959.91;5031242;28;20038;-71
2023/12/15 06:36:23;;;;;;;25.65;14.15;;;;;;;5.57;100.00;101959.03;5032473;28;20061;-72
2023/12/15 06:38:54;;;;;;;29.50;15.32;;;;;;;5.48;100.00;101965.19;5035246;28;20138;-72
2023/12/15 06:41:23;;;;;;;27.98;14.88;;;;;;;5.28;100.00;101959.94;5033182;28;20139;-72
2023/12/15 06:43:53;;;;;;;28.15;14.93;;;;;;;5.34;100.00;101955.59;5033157;28;20038;-72
2023/12/15 06:46:27;;;;;;;30.95;15.02;;;;;;;5.37;100.00;101958.19;5046868;28;20060;-72
2023/12/15 06:48:56;;;;;;;27.75;14.82;;;;;;;5.40;100.00;101966.06;5039087;28;20048;-71
2023/12/15 06:51:25;;;;;;;26.25;14.07;;;;;;;5.28;100.00;101946.81;5018267;28;20057;-72
2023/12/15 06:53:54;;;;;;;25.08;13.70;;;;;;;5.25;100.00;101962.56;5031177;28;20656;-71
2023/12/15 06:56:23;;;;;;;26.35;14.05;;;;;;;5.24;100.00;101973.06;5018073;28;20146;-72
2023/12/15 06:58:52;;;;;;;26.50;13.20;;;;;;;5.13;100.00;101959.94;5035269;28;20124;-73
2023/12/15 07:01:21;;;;;;;29.58;13.95;;;;;;;5.29;100.00;101968.72;5040360;28;20075;-71
2023/12/15 07:03:51;;;;;;;25.00;13.13;;;;;;;5.38;100.00;101979.19;5030366;28;20045;-72
2023/12/15 07:06:23;;;;;;;21.95;12.55;;;;;;;5.35;100.00;101978.34;5030542;28;20126;-72
2023/12/15 07:08:54;;;;;;;26.27;13.63;;;;;;;5.37;100.00;101979.19;5043823;28;20045;-72
2023/12/15 07:11:23;;;;;;;;;;;;;;;5.44;100.00;101986.22;5057654;28;20080;-71
2023/12/15 07:13:50;;;;;;;25.33;13.73;;;;;;;5.46;100.00;101987.97;5016965;28;19932;-71
2023/12/15 07:16:19;;;;;;;23.65;12.90;;;;;;;5.51;100.00;102001.94;5033650;28;20120;-72
2023/12/15 07:18:47;;;;;;;24.15;13.45;;;;;;;5.46;100.00;102008.97;5034501;28;20065;-71
2023/12/15 07:21:17;;;;;;;27.17;14.65;;;;;;;5.39;100.00;102022.09;5031940;28;20236;-72
2023/12/15 07:23:46;;;;;;;23.15;12.57;;;;;;;5.35;100.00;102023.88;5036726;28;20072;-72
2023/12/15 07:26:17;;;;;;;24.88;13.57;;;;;;;5.34;100.00;102030.00;5019165;28;20069;-71
2023/12/15 07:28:48;;;;;;;22.38;12.82;;;;;;;5.35;100.00;102036.13;5036130;28;20132;-72
2023/12/15 07:31:16;;;;;;;22.30;12.77;;;;;;;5.39;100.00;102036.13;5034355;28;20063;-73
2023/12/15 07:33:47;;;;;;;24.85;12.82;;;;;;;5.42;100.00;102045.75;4999908;28;20095;-71
2023/12/15 07:36:17;;;;;;;;;;;;;;;5.36;100.00;102051.00;5028386;28;20041;-71
2023/12/15 07:38:49;;;;;;;22.25;12.38;;;;;;;5.25;100.00;102051.00;5043065;28;19959;-72
2023/12/15 07:41:17;;;;;;;22.83;12.38;;;;;;;5.13;100.00;102038.72;5047407;28;20073;-72
2023/12/15 07:43:46;;;;;;;25.60;13.07;;;;;;;5.21;100.00;102041.34;5033114;28;20053;-72
2023/12/15 07:46:17;;;;;;;24.70;14.32;;;;;;;5.28;100.00;102036.13;5014902;28;20057;-73
2023/12/15 07:48:46;;;;;;;26.40;13.55;;;;;;;5.36;100.00;102045.75;5036761;28;20048;-72
2023/12/15 07:51:20;;;;;;;21.52;11.63;;;;;;;5.35;100.00;102054.53;5027216;28;20219;-71
2023/12/15 07:53:50;;;;;;;24.15;12.57;;;;;;;5.34;100.00;102060.66;5037304;28;20133;-73
2023/12/15 07:56:21;;;;;;;23.13;12.43;;;;;;;5.23;100.00;102058.88;5032888;28;20045;-71
2023/12/15 07:58:51;;;;;;;23.90;12.48;;;;;;;5.23;100.00;102087.75;5035387;28;20041;-77
2023/12/15 08:01:21;;;;;;;22.30;12.80;;;;;;;5.07;100.00;102075.47;5034360;28;20073;-72
2023/12/15 08:03:50;;;;;;;23.33;12.55;;;;;;;5.07;100.00;102085.97;5017673;28;20045;-73
2023/12/15 08:06:21;;;;;;;23.30;12.20;;;;;;;4.98;100.00;102085.97;5024957;28;20510;-73
2023/12/15 08:08:51;;;;;;;21.67;11.68;;;;;;;5.11;100.00;102106.13;5032734;28;20120;-72
2023/12/15 08:11:22;;;;;;;19.83;11.95;;;;;;;5.11;100.00;102110.50;5030842;28;20491;-72
2023/12/15 08:13:52;;;;;;;21.88;12.55;;;;;;;5.14;100.00;102111.38;5030837;28;20132;-72
2023/12/15 08:16:20;;;;;;;20.85;12.32;;;;;;;5.15;100.00;102113.13;5021036;28;20136;-73
2023/12/15 08:18:48;;;;;;;22.35;12.30;;;;;;;5.13;100.00;102101.75;5042599;28;20057;-74
2023/12/15 08:21:17;;;;;;;23.42;12.95;;;;;;;5.26;100.00;102107.91;5027181;28;20048;-73
2023/12/15 08:23:46;;;;;;;23.30;12.18;;;;;;;5.35;100.00;102102.69;5022909;28;20378;-72
2023/12/15 08:26:23;;;;;;;23.70;12.13;;;;;;;5.50;100.00;102104.47;5024227;28;20107;-74
2023/12/15 08:28:53;;;;;;;24.27;12.10;;;;;;;5.57;100.00;102091.31;5033406;28;20057;-71
2023/12/15 08:31:21;;;;;;;;;;;;;;;5.69;100.00;102098.31;5012378;28;20060;-71
2023/12/15 08:33:50;;;;;;;21.38;12.55;;;;;;;5.73;100.00;102102.69;5022709;28;19947;-73
2023/12/15 08:36:20;;;;;;;23.60;12.98;;;;;;;5.85;100.00;102102.69;5018622;28;20041;-73
2023/12/15 08:38:49;;;;;;;23.00;13.07;;;;;;;5.96;100.00;102106.25;5044710;28;20099;-73
2023/12/15 08:41:18;;;;;;;21.63;12.60;;;;;;;6.01;100.00;102116.75;5027592;28;20053;-73
2023/12/15 08:43:46;;;;;;;22.63;11.95;;;;;;;6.04;100.00;102107.97;5030793;28;20045;-72
2023/12/15 08:46:16;;;;;;;21.77;13.02;;;;;;;6.14;100.00;102110.59;5016270;28;20045;-71
2023/12/15 08:48:45;;;;;;;24.10;12.43;;;;;;;6.20;100.00;102120.22;5047823;28;20060;-70
2023/12/15 08:51:13;;;;;;;18.77;11.15;;;;;;;6.16;100.00;102119.34;5043658;28;21269;-71
2023/12/15 08:53:42;;;;;;;19.30;11.52;;;;;;;6.12;100.00;102129.91;5038965;28;20148;-71
2023/12/15 08:56:17;;;;;;;20.90;11.55;;;;;;;5.95;100.00;102136.03;5024381;28;20117;-70
2023/12/15 08:58:45;;;;;;;20.23;11.90;;;;;;;5.78;100.00;102132.50;5039819;28;20049;-71
2023/12/15 09:01:14;;;;;;;20.35;11.63;;;;;;;5.74;100.00;102145.63;5057690;28;20045;-70
2023/12/15 09:03:44;;;;;;;22.90;12.57;;;;;;;5.60;100.00;102129.84;5040312;28;20101;-72
2023/12/15 09:06:14;;;;;;;20.27;11.88;;;;;;;5.63;100.00;102133.38;5049417;28;20045;-71
2023/12/15 09:08:55;;;;;;;22.95;12.40;;;;;;;5.69;100.00;102143.00;5039349;28;20049;-71
2023/12/15 09:11:25;;;;;;;19.08;12.00;;;;;;;5.82;100.00;102147.41;5033240;28;20111;-74
2023/12/15 09:13:56;;;;;;;19.92;12.32;;;;;;;5.90;100.00;102164.09;5024068;28;20056;-72
2023/12/15 09:16:24;;;;;;;21.20;11.85;;;;;;;6.01;100.00;102168.47;5019662;28;20050;-73
2023/12/15 09:18:55;;;;;;;20.45;11.88;;;;;;;6.13;100.00;102171.09;5027911;28;20061;-72
2023/12/15 09:21:26;;;;;;;22.38;12.63;;;;;;;6.20;100.00;102159.69;5027168;28;20057;-73
2023/12/15 09:23:58;;;;;;;22.58;12.23;;;;;;;6.30;100.00;102174.56;5045343;28;20564;-72
2023/12/15 09:26:30;;;;;;;21.50;12.05;;;;;;;6.19;100.00;102177.22;5025666;28;20085;-72
2023/12/15 09:28:58;;;;;;;22.55;12.65;;;;;;;6.17;100.00;102180.72;5030645;28;20468;-72
2023/12/15 09:31:26;;;;;;;19.65;11.65;;;;;;;6.21;100.00;102182.47;5028601;28;20057;-70
2023/12/15 09:33:56;;;;;;;21.40;12.23;;;;;;;6.25;100.00;102181.63;5029807;28;20580;-71
2023/12/15 09:36:34;;;;;;;18.95;11.98;;;;;;;6.31;100.00;102185.09;5032385;28;20119;-72
2023/12/15 09:39:05;;;;;;;20.88;11.57;;;;;;;6.42;100.00;102195.63;5051913;28;20060;-72
2023/12/15 09:41:36;;;;;;;22.80;12.68;;;;;;;6.36;100.00;102193.00;5054333;28;20069;-72
2023/12/15 09:44:05;;;;;;;20.55;12.57;;;;;;;6.30;100.00;102193.00;5040806;28;20052;-72
2023/12/15 09:46:37;;;;;;;19.08;12.15;;;;;;;6.36;100.00;102193.00;5025591;28;20049;-72
2023/12/15 09:49:07;;;;;;;21.17;11.90;;;;;;;6.42;100.00;102200.03;5032756;28;20045;-72
2023/12/15 09:51:38;;;;;;;18.75;12.40;;;;;;;6.31;100.00;102208.78;5031352;28;20103;-72
2023/12/15 09:54:06;;;;;;;22.30;13.05;;;;;;;6.21;100.00;102219.31;5015585;28;20056;-72
2023/12/15 09:56:38;;;;;;;21.30;13.45;;;;;;;6.10;100.00;102223.69;5023870;28;20049;-71
2023/12/15 09:59:10;;;;;;;22.52;13.40;;;;;;;6.05;100.00;102225.44;5051423;28;20101;-70
2023/12/15 10:01:38;;;;;;;24.20;13.27;;;;;;;5.95;100.00;102227.19;5057843;28;20039;-71
2023/12/15 10:04:09;;;;;;;25.10;14.60;;;;;;;5.81;100.00;102221.91;5050559;28;20041;-71
2023/12/15 10:06:38;;;;;;;25.45;14.40;;;;;;;5.76;100.00;102228.00;5029589;28;20057;-70
2023/12/15 10:09:12;;;;;;;25.83;14.93;;;;;;;5.75;100.00;102227.13;5040270;28;20103;-71
2023/12/15 10:11:46;;;;;;;23.42;13.85;;;;;;;5.82;100.00;102228.91;5041577;28;20046;-71
2023/12/15 10:14:15;;;;;;;28.48;14.35;;;;;;;5.96;100.00;102226.31;5048433;28;20698;-70
2023/12/15 10:16:44;;;;;;;23.85;14.15;;;;;;;6.10;100.00;102228.97;5039378;28;20064;-71
2023/12/15 10:19:14;;;;;;;23.67;13.97;;;;;;;6.23;100.00;102230.72;5037513;28;20164;-72
2023/12/15 10:21:42;;;;;;;21.45;13.20;;;;;;;6.25;100.00;102231.59;5036857;28;20480;-72
2023/12/15 10:24:19;;;;;;;21.42;13.45;;;;;;;6.34;100.00;102242.09;5045741;28;20072;-72
2023/12/15 10:26:50;;;;;;;25.15;13.85;;;;;;;6.26;100.00;102247.38;5045144;28;20080;-72
2023/12/15 10:29:19;;;;;;;23.13;14.82;;;;;;;6.12;100.00;102249.13;5039688;28;20049;-72
2023/12/15 10:31:49;;;;;;;24.20;14.45;;;;;;;6.07;100.00;102263.16;5039264;28;20046;-72
2023/12/15 10:34:19;;;;;;;;;;;;;;;6.07;100.00;102269.28;5023289;28;20109;-72
2023/12/15 10:36:49;;;;;;;24.25;13.60;;;;;;;6.02;100.00;102270.13;5046959;28;19922;-71
2023/12/15 10:39:18;;;;;;;27.42;15.70;;;;;;;6.06;100.00;102259.63;5040995;28;20125;-71
2023/12/15 10:41:48;;;;;;;25.15;14.63;;;;;;;6.04;100.00;102278.91;5043905;28;20056;-72
2023/12/15 10:44:17;;;;;;;21.25;13.07;;;;;;;6.00;100.00;102275.41;5038390;28;20764;-70
2023/12/15 10:46:47;;;;;;;24.50;14.20;;;;;;;6.09;100.00;102267.53;5037645;28;20569;-72
2023/12/15 10:49:19;;;;;;;30.40;16.27;;;;;;;6.07;100.00;102271.03;5022415;28;20052;-73
2023/12/15 10:51:47;;;;;;;28.75;15.45;;;;;;;6.06;100.00;102279.81;5034762;28;20548;-73
2023/12/15 10:54:19;;;;;;;27.15;15.30;;;;;;;6.06;100.00;102269.28;5032329;28;20045;-73
2023/12/15 10:56:51;;;;;;;28.40;15.52;;;;;;;6.14;100.00;102270.19;5025754;28;20164;-73
2023/12/15 10:59:20;;;;;;;29.48;16.52;;;;;;;6.19;100.00;102266.66;5032983;28;20378;-73
2023/12/15 11:01:49;;;;;;;23.85;14.38;;;;;;;6.35;100.00;102267.53;5017756;28;20091;-72
2023/12/15 11:04:20;;;;;;;26.35;15.05;;;;;;;6.45;100.00;102278.97;5015775;28;20140;-72
2023/12/15 11:06:49;;;;;;;24.60;15.18;;;;;;;6.46;100.00;102286.84;5006289;28;20053;-72
2023/12/15 11:09:30;;;;;;;27.83;15.90;;;;;;;6.34;100.00;102287.72;5035372;28;20427;-75
2023/12/15 11:12:29;;;;;;;28.50;15.23;;;;;;;6.30;100.00;102285.94;5048229;28;20041;-73
2023/12/15 11:15:00;;;;;;;26.40;15.25;;;;;;;6.27;100.00;102285.09;5034730;28;20096;-73
2023/12/15 11:17:29;;;;;;;25.48;15.32;;;;;;;6.28;100.00;102297.38;5023328;28;20102;-74
2023/12/15 11:19:59;;;;;;;27.55;15.32;;;;;;;6.32;100.00;102293.84;5031734;28;20496;-75
2023/12/15 11:22:32;;;;;;;31.80;15.18;;;;;;;6.40;100.00;102293.88;5030686;28;20061;-72
2023/12/15 11:25:01;;;;;;;;;;;;;;;6.43;100.00;102284.22;5035769;28;20046;-72